Time;durP1;ratioP1;P1;durP2;ratioP2;P2;SDS_P1;SDS_P2;PMS_P1;PMS_P2;Temp;Humidity;BMP_temperature;BMP_pressure;BME280_temperature;BME280_humidity;BME280_pressure;Samples;Min_cycle;Max_cycle;Signal;HPM_P1;HPM_P2
2021/11/01 11:26:20;;;;;;;7.50;1.55;;;13.80;88.80;;;12.64;82.51;98959.63;5004787;28;20060;-87
2021/11/01 11:38:00;;;;;;;6.85;1.30;;;14.00;86.90;;;12.74;80.75;98950.00;5021793;28;20049;-88
2021/11/01 11:43:44;;;;;;;4.95;1.02;;;14.00;86.60;;;12.44;81.81;98943.59;5029045;28;20041;-88
2021/11/01 11:49:15;;;;;;;10.75;1.58;;;14.00;85.50;;;12.48;81.31;98952.97;5028038;28;20812;-88
2021/11/01 11:51:55;;;;;;;7.63;1.60;;;14.00;85.70;;;12.53;80.74;98960.47;5024480;28;20675;-89
2021/11/01 11:54:35;;;;;;;7.33;1.50;;;14.00;86.00;;;12.50;80.06;98953.56;5024471;28;20053;-92
2021/11/01 11:57:04;;;;;;;5.43;1.42;;;14.00;85.00;;;12.47;82.39;98954.03;5011465;28;20064;-88
2021/11/01 11:59:38;;;;;;;5.72;1.00;;;14.00;86.20;;;12.43;81.44;98947.41;5011788;28;20088;-88
2021/11/01 12:02:08;;;;;;;5.97;1.30;;;14.00;86.30;;;12.37;82.04;98953.78;5029590;28;20423;-90
2021/11/01 12:04:44;;;;;;;4.97;1.02;;;14.00;86.40;;;12.30;81.70;98951.16;5029136;28;20061;-90
2021/11/01 12:07:14;;;;;;;4.63;0.88;;;14.00;85.30;;;12.29;81.88;98945.94;5038909;28;20049;-89
2021/11/01 12:09:55;;;;;;;5.32;1.10;;;14.00;86.20;;;12.19;82.94;98945.69;5048191;28;20049;-89
2021/11/01 12:12:48;;;;;;;9.20;1.17;;;14.00;86.60;;;12.22;82.64;98945.22;5037396;28;20045;-88
2021/11/01 12:18:03;;;;;;;5.60;1.10;;;14.00;86.10;;;12.29;81.42;98945.94;5027124;28;20090;-90
2021/11/01 12:20:31;;;;;;;5.32;1.00;;;14.00;86.00;;;12.21;81.13;98951.75;5010275;28;20053;-90
2021/11/01 12:23:03;;;;;;;7.40;0.90;;;14.00;86.30;;;12.13;82.14;98948.28;5037861;28;20572;-90
2021/11/01 12:25:44;;;;;;;5.20;1.00;;;14.00;86.40;;;12.14;80.25;98943.66;5019459;28;20060;-90
2021/11/01 12:28:26;;;;;;;6.00;0.80;;;14.00;85.80;;;12.22;80.63;98937.88;5010876;28;20055;-91
2021/11/01 12:31:18;;;;;;;9.50;1.20;;;13.90;84.60;;;12.24;81.15;98940.34;5028635;28;20118;-92
2021/11/01 12:33:52;;;;;;;6.55;1.10;;;13.90;85.80;;;12.24;78.61;98943.94;5007280;28;20636;-88
2021/11/01 12:36:26;;;;;;;5.55;1.52;;;13.90;83.20;;;12.24;76.06;98943.94;5041973;28;20485;-88
2021/11/01 12:38:58;;;;;;;3.88;1.35;;;13.90;82.00;;;12.25;78.59;98942.84;5029943;28;20048;-88
2021/11/01 12:41:39;;;;;;;4.70;1.02;;;13.90;83.30;;;12.36;78.25;98940.41;5031166;28;20077;-88
2021/11/01 12:59:45;;;;;;;8.00;1.35;;;14.10;82.40;;;12.65;76.47;98930.44;4986542;28;20205;-92
2021/11/01 13:02:17;;;;;;;5.90;0.90;;;14.10;82.70;;;12.55;76.42;98930.22;4969878;28;20042;-91
2021/11/01 13:04:49;;;;;;;5.43;1.30;;;14.10;82.70;;;12.42;78.21;98925.81;4969788;28;20193;-90
2021/11/01 13:07:40;;;;;;;5.07;1.00;;;14.10;83.30;;;12.31;78.46;98930.16;4997048;28;20046;-92
2021/11/01 13:10:16;;;;;;;6.78;1.13;;;14.10;83.20;;;12.24;79.22;98927.56;4989096;28;20053;-92
2021/11/01 13:18:24;;;;;;;5.15;1.08;;;14.10;83.80;;;12.42;79.63;98921.16;5065669;28;20098;-85
2021/11/01 13:20:57;;;;;;;3.60;0.95;;;14.10;83.50;;;12.46;78.26;98930.53;5070411;28;20119;-89
2021/11/01 13:23:27;;;;;;;5.80;0.88;;;14.10;83.00;;;12.54;78.17;98915.72;5080376;28;20048;-85
2021/11/01 13:29:01;;;;;;;5.50;1.23;;;14.10;84.00;;;12.66;77.96;98922.03;5060252;28;20194;-85
2021/11/01 13:37:26;;;;;;;6.45;1.00;;;14.20;83.50;;;12.60;75.73;98916.66;5083989;27;20381;-83
2021/11/01 13:40:03;;;;;;;5.63;1.00;;;14.20;83.00;;;12.55;77.68;98922.03;5059690;28;20055;-83
2021/11/01 13:42:31;;;;;;;9.40;1.48;;;14.20;83.00;;;12.58;77.31;98927.81;5056562;28;20102;-85
2021/11/01 13:45:13;;;;;;;8.07;1.23;;;14.20;83.70;;;12.62;78.08;98933.63;5065907;28;20500;-86
2021/11/01 13:47:47;;;;;;;4.50;1.00;;;14.20;83.50;;;12.70;77.78;98930.56;5080791;28;20060;-87
2021/11/01 13:50:18;;;;;;;3.60;1.00;;;14.20;83.40;;;12.64;78.41;98921.44;5046820;28;20409;-85
2021/11/01 13:53:04;;;;;;;9.40;1.08;;;14.20;83.80;;;12.52;77.98;98928.75;5062316;28;20580;-86
2021/11/01 13:55:44;;;;;;;6.65;1.23;;;14.20;83.50;;;12.44;77.10;98927.22;5063388;28;20036;-86
2021/11/01 13:58:32;;;;;;;6.60;1.38;;;14.20;82.80;;;12.30;77.49;98923.06;5047743;28;20045;-86
2021/11/01 14:01:33;;;;;;;5.18;1.15;;;14.20;83.10;;;12.11;79.92;98928.59;5065329;28;20128;-86
2021/11/01 14:12:29;;;;;;;7.65;1.10;;;14.10;83.30;;;11.97;80.85;98932.59;5059268;28;20571;-84
2021/11/01 14:15:00;;;;;;;6.30;1.23;;;14.00;83.50;;;11.92;80.42;98935.19;5064926;28;20094;-84
2021/11/01 14:17:47;;;;;;;4.38;1.10;;;14.00;83.80;;;11.98;79.91;98936.16;5064323;28;20123;-84
2021/11/01 14:20:31;;;;;;;5.93;1.20;;;14.00;83.80;;;12.00;80.28;98942.22;5064759;28;20048;-84
2021/11/01 14:34:41;;;;;;;5.03;1.02;;;13.90;83.20;;;11.88;77.99;98928.47;5049146;28;20073;-84
2021/11/01 14:59:49;;;;;;;9.52;1.55;;;13.70;83.80;;;11.84;78.96;98932.75;5029620;28;20045;-85
2021/11/01 15:16:30;;;;;;;9.65;1.55;;;13.80;84.10;;;11.75;82.52;98937.72;4991816;28;20145;-87
2021/11/01 15:21:49;;;;;;;6.18;1.20;;;13.70;84.80;;;11.69;82.61;98930.44;5013529;28;20079;-86
2021/11/01 15:24:29;;;;;;;4.20;1.00;;;13.70;84.80;;;11.68;82.84;98936.97;5048131;28;20047;-87
2021/11/01 15:33:00;;;;;;;7.18;1.10;;;13.70;84.60;;;11.58;80.60;98945.69;5050129;28;20041;-87
2021/11/01 15:38:26;;;;;;;7.88;1.75;;;13.70;84.30;;;11.52;80.98;98952.06;5047207;28;20592;-86
2021/11/01 15:41:33;;;;;;;6.70;0.90;;;13.60;83.60;;;11.49;82.08;98947.88;5049475;28;20128;-85
2021/11/01 16:19:52;;;;;;;7.57;1.80;;;13.40;85.80;;;11.23;84.83;98951.78;5043364;28;20048;-84
2021/11/01 16:22:23;;;;;;;7.20;2.08;;;13.40;85.90;;;11.21;85.50;98956.59;5048241;28;20051;-85
2021/11/01 16:24:50;;;;;;;8.57;1.90;;;13.40;86.00;;;11.24;85.21;98960.78;5049677;28;20041;-85
2021/11/01 16:27:20;;;;;;;9.10;1.67;;;13.40;86.20;;;11.21;84.87;98958.50;5040729;28;20116;-85
2021/11/01 16:29:52;;;;;;;6.63;1.63;;;13.30;86.30;;;11.17;84.86;98952.69;5036941;28;20046;-85
2021/11/01 16:32:23;;;;;;;8.63;2.38;;;13.30;86.30;;;11.18;86.37;98959.81;5040265;28;20181;-85
2021/11/01 16:34:57;;;;;;;5.45;1.73;;;13.30;86.40;;;11.19;86.12;98958.72;5046419;28;20041;-85
2021/11/01 16:37:30;;;;;;;8.25;1.90;;;13.30;86.60;;;11.20;85.90;98954.13;5044978;28;20049;-85
2021/11/01 16:40:00;;;;;;;7.95;1.75;;;13.30;86.50;;;11.14;86.47;98958.59;5049419;28;20045;-85
2021/11/01 16:42:32;;;;;;;6.32;1.98;;;13.30;86.80;;;11.15;86.05;98962.97;5046804;28;20056;-84
2021/11/01 16:45:07;;;;;;;9.63;2.33;;;13.30;86.70;;;11.12;85.73;98963.44;5046290;28;20037;-85
2021/11/01 16:47:35;;;;;;;9.88;2.35;;;13.30;86.90;;;11.00;86.24;98962.50;5050360;28;20041;-85
2021/11/01 16:50:05;;;;;;;11.32;2.42;;;13.20;86.80;;;10.87;87.07;98961.59;5048117;28;20044;-85
2021/11/01 16:52:34;;;;;;;8.75;2.33;;;13.20;86.80;;;10.76;88.30;98963.16;5046947;28;20084;-84
2021/11/01 16:55:04;;;;;;;8.30;2.65;;;13.20;86.80;;;10.65;88.95;98963.91;5039558;28;20042;-85
2021/11/01 16:57:42;;;;;;;9.60;2.10;;;13.10;87.00;;;10.49;89.21;98968.03;5028953;28;20037;-85
2021/11/01 17:00:20;;;;;;;6.13;2.20;;;13.10;87.10;;;10.38;89.91;98968.75;5029284;28;20057;-85
2021/11/01 17:03:00;;;;;;;11.38;2.83;;;13.10;87.20;;;10.32;90.21;98965.03;5044943;28;20061;-85
2021/11/01 17:05:36;;;;;;;11.88;2.47;;;13.00;87.20;;;10.28;90.64;98961.06;5029026;28;20147;-84
2021/11/01 17:08:26;;;;;;;8.82;2.10;;;13.00;87.20;;;10.29;90.30;98962.69;5028827;28;20409;-84
2021/11/01 17:22:11;;;;;;;12.93;3.03;;;12.70;87.80;;;9.88;92.25;98965.91;5035570;28;20489;-84
2021/11/01 17:24:47;;;;;;;10.30;2.97;;;12.60;87.70;;;9.82;92.69;98964.06;5027721;28;20049;-84
2021/11/01 17:27:42;;;;;;;10.18;3.33;;;12.60;88.00;;;9.77;92.80;98967.44;5039306;28;20056;-85
2021/11/01 17:36:17;;;;;;;12.20;4.47;;;12.40;88.30;;;9.59;93.32;98970.88;5036617;28;20045;-83
2021/11/01 18:40:25;;;;;;;13.48;3.67;;;11.40;90.00;;;8.97;95.62;99011.19;5047787;28;20064;-87
2021/11/01 18:51:29;;;;;;;10.38;2.80;;;11.40;90.30;;;8.90;95.21;99013.91;5046187;28;20233;-91
2021/11/01 18:54:04;;;;;;;13.30;2.90;;;11.40;90.30;;;8.83;95.70;99010.34;5049607;28;20076;-91
2021/11/01 18:56:37;;;;;;;9.55;2.97;;;11.40;90.40;;;8.87;96.09;99006.19;5048262;28;20049;-90
2021/11/01 18:59:08;;;;;;;10.10;3.20;;;11.30;90.50;;;8.86;95.39;99012.66;5037703;28;20532;-90
2021/11/01 19:01:38;;;;;;;16.95;3.50;;;11.30;90.70;;;8.85;95.14;99018.28;5048393;28;20057;-91
2021/11/01 19:04:11;;;;;;;13.95;3.28;;;11.30;90.70;;;8.79;95.34;99014.53;5047977;28;20084;-87
2021/11/01 19:06:50;;;;;;;8.40;2.20;;;11.30;90.50;;;8.76;95.31;99009.53;5051386;28;20515;-96
2021/11/01 19:09:34;;;;;;;6.93;2.80;;;11.30;90.60;;;8.81;95.21;99007.00;5037622;28;20063;-94
2021/11/01 20:05:06;;;;;;;8.80;2.50;;;11.10;91.00;;;8.70;95.69;98996.78;5036835;28;20084;-91
2021/11/01 20:13:32;;;;;;;;;;;11.10;91.20;;;8.80;94.90;98991.78;4948497;28;20074;-90
2021/11/01 20:16:29;;;;;;;7.15;2.20;;;11.10;91.20;;;8.81;95.55;98985.31;5037028;28;19921;-91
2021/11/01 21:26:36;;;;;;;7.10;2.10;;;10.80;91.90;;;8.38;97.96;98975.72;5044393;28;20116;-91
2021/11/01 21:29:04;;;;;;;5.88;1.95;;;10.80;92.00;;;8.37;97.98;98962.38;5041699;28;20044;-91
2021/11/01 21:31:31;;;;;;;8.38;2.20;;;10.80;92.00;;;8.37;97.48;98965.91;5026596;28;20045;-91
2021/11/01 21:34:02;;;;;;;6.18;1.77;;;10.80;91.90;;;8.38;97.92;98964.88;5025018;28;20057;-90
2021/11/01 21:36:29;;;;;;;10.38;2.40;;;10.80;92.20;;;8.45;98.13;98964.06;5031495;28;20080;-91
2021/11/01 21:38:58;;;;;;;8.93;2.00;;;10.80;92.30;;;8.41;98.14;98967.22;5041862;28;20119;-91
2021/11/01 21:41:30;;;;;;;5.97;1.92;;;10.80;92.40;;;8.40;98.05;98968.22;5035893;28;20573;-92
2021/11/01 21:43:57;;;;;;;11.18;1.98;;;10.80;92.50;;;8.43;98.46;98966.16;5044100;28;20103;-91
2021/11/01 21:46:25;;;;;;;10.57;2.30;;;10.80;92.60;;;8.35;98.82;98967.16;5044789;28;20517;-90
2021/11/01 21:48:53;;;;;;;8.05;2.42;;;10.80;92.50;;;8.40;99.04;98973.63;5039835;28;20135;-90
2021/11/01 21:51:22;;;;;;;7.93;2.28;;;10.80;92.50;;;8.39;98.20;98976.56;5044389;28;20444;-87
2021/11/01 21:53:56;;;;;;;8.60;2.17;;;10.80;92.60;;;8.39;98.82;98965.72;5047903;28;20489;-90
2021/11/01 21:56:23;;;;;;;7.70;1.98;;;10.80;92.70;;;8.40;99.31;98968.22;5039894;28;20124;-91
2021/11/01 21:59:10;;;;;;;7.88;2.15;;;10.80;92.70;;;8.45;99.02;98959.47;5045071;28;20049;-91
2021/11/01 22:10:04;;;;;;;8.48;2.00;;;10.80;92.90;;;8.47;98.95;98967.41;5051459;28;20037;-91
2021/11/01 22:18:08;;;;;;;11.73;2.15;;;10.80;93.00;;;8.47;98.45;98961.97;5032765;28;20061;-91
2021/11/01 22:20:37;;;;;;;5.93;2.30;;;10.80;92.80;;;8.47;98.73;98970.13;5045992;28;20046;-91
2021/11/01 22:23:11;;;;;;;11.05;3.67;;;10.80;92.90;;;8.46;98.96;98966.56;5030611;28;20045;-92
2021/11/01 22:25:43;;;;;;;9.23;2.25;;;10.80;93.00;;;8.50;99.13;98965.13;5029907;28;20041;-92
2021/11/01 22:33:56;;;;;;;8.52;2.15;;;10.80;93.20;;;8.73;98.99;98971.97;5031378;28;20088;-92
2021/11/01 22:39:15;;;;;;;8.27;2.35;;;10.90;93.50;;;8.89;98.56;98970.69;5030563;28;20053;-91
2021/11/01 22:55:44;;;;;;;8.05;1.95;;;11.00;93.40;;;8.97;97.98;98965.06;4998784;28;20051;-93
2021/11/01 22:58:14;;;;;;;6.75;1.88;;;11.00;93.50;;;9.00;98.11;98964.63;5018241;28;20069;-91
2021/11/01 23:00:48;;;;;;;8.82;2.10;;;11.00;93.50;;;9.02;97.86;98969.84;5026312;28;20145;-92
2021/11/01 23:03:19;;;;;;;7.05;2.10;;;11.00;93.50;;;9.00;98.00;98962.75;5029797;28;20730;-91
2021/11/01 23:06:17;;;;;;;;;;;11.00;93.40;;;8.97;98.01;98963.16;5030271;28;20053;-92
2021/11/01 23:33:35;;;;;;;11.45;2.30;;;10.90;93.10;;;8.22;100.00;98955.31;5016209;28;20046;-92
2021/11/01 23:36:02;;;;;;;9.20;2.22;;;10.80;93.00;;;8.21;100.00;98942.78;5029942;28;20061;-91
2021/11/01 23:38:30;;;;;;;13.30;2.58;;;10.80;93.10;;;8.15;100.00;98948.22;5029310;28;20050;-92
2021/11/01 23:40:57;;;;;;;12.52;2.53;;;10.70;93.20;;;8.15;100.00;98943.63;5031643;28;20041;-91
2021/11/01 23:43:28;;;;;;;8.88;2.33;;;10.70;93.30;;;8.15;100.00;98943.63;5029944;28;20246;-91
2021/11/01 23:45:57;;;;;;;8.50;2.33;;;10.70;93.40;;;8.10;100.00;98951.53;5030002;28;20068;-91
2021/11/01 23:48:24;;;;;;;11.20;2.38;;;10.70;93.40;;;8.07;100.00;98941.09;5029336;28;20080;-91
2021/11/01 23:50:52;;;;;;;7.70;2.42;;;10.60;93.20;;;8.01;100.00;98952.75;5031063;28;20068;-91
2021/11/01 23:53:33;;;;;;;11.00;2.30;;;10.60;93.30;;;8.02;100.00;98954.44;5031126;28;20045;-91
2021/11/01 23:56:00;;;;;;;7.65;2.55;;;10.60;93.40;;;7.94;100.00;98951.91;5029555;28;20073;-91
2021/11/01 23:58:29;;;;;;;8.00;2.25;;;10.60;93.50;;;7.91;100.00;98952.34;5028744;28;20123;-91
